createdAt,value
2023-02-25T00:00:18.332Z,36.63
2023-02-25T00:03:09.605Z,35.63
2023-02-25T00:05:43.305Z,39.23
2023-02-25T00:08:10.976Z,38.10
2023-02-25T00:10:38.496Z,37.03
2023-02-25T00:13:17.774Z,37.23
2023-02-25T00:15:46.648Z,36.90
2023-02-25T00:18:14.695Z,36.10
2023-02-25T00:20:42.521Z,35.80
2023-02-25T00:23:10.940Z,34.50
2023-02-25T00:25:38.619Z,36.33
2023-02-25T00:28:06.609Z,39.13
2023-02-25T00:30:35.233Z,39.93
2023-02-25T00:33:03.039Z,38.60
2023-02-25T00:35:30.706Z,37.27
2023-02-25T00:38:13.885Z,38.40
2023-02-25T00:40:43.032Z,37.20
2023-02-25T00:43:10.672Z,37.97
2023-02-25T00:45:40.929Z,36.23
2023-02-25T00:48:08.807Z,36.33
2023-02-25T00:50:36.529Z,36.53
2023-02-25T00:53:04.580Z,36.70
2023-02-25T00:55:33.628Z,37.33
2023-02-25T00:58:22.322Z,37.27
2023-02-25T01:00:52.109Z,38.17
2023-02-25T01:03:19.470Z,38.50
2023-02-25T01:05:49.621Z,39.37
2023-02-25T01:08:19.009Z,40.97
2023-02-25T01:10:46.451Z,41.23
2023-02-25T01:13:15.654Z,40.77
2023-02-25T01:15:45.008Z,40.73
2023-02-25T01:18:13.020Z,42.33
2023-02-25T01:20:40.712Z,42.30
2023-02-25T01:23:07.937Z,43.27
2023-02-25T01:25:36.087Z,40.13
2023-02-25T01:28:04.131Z,44.43
2023-02-25T01:30:32.120Z,48.43
2023-02-25T01:32:59.700Z,48.83
2023-02-25T01:35:27.667Z,48.47
2023-02-25T01:37:55.505Z,50.60
2023-02-25T01:40:24.598Z,50.17
2023-02-25T01:42:52.633Z,53.70
2023-02-25T01:45:22.070Z,54.27
2023-02-25T01:47:50.944Z,51.80
2023-02-25T01:50:19.803Z,54.17
2023-02-25T01:52:47.629Z,52.67
2023-02-25T01:55:15.636Z,54.97
2023-02-25T01:57:43.499Z,53.57
2023-02-25T02:00:17.536Z,54.17
2023-02-25T02:02:45.581Z,53.73
2023-02-25T02:05:12.740Z,51.73
2023-02-25T02:07:41.283Z,51.87
2023-02-25T02:10:11.679Z,52.80
2023-02-25T02:12:40.296Z,52.17
2023-02-25T02:15:12.381Z,52.80
2023-02-25T02:17:47.502Z,50.03
2023-02-25T02:20:22.026Z,48.37
2023-02-25T02:22:58.563Z,44.83
2023-02-25T02:25:57.542Z,46.05
2023-02-25T02:28:50.785Z,42.67
2023-02-25T02:31:26.201Z,41.33
2023-02-25T02:33:55.305Z,39.37
2023-02-25T02:36:40.634Z,37.27
2023-02-25T02:39:26.247Z,37.80
2023-02-25T02:42:02.254Z,35.60
2023-02-25T02:44:31.512Z,36.17
2023-02-25T02:47:01.140Z,37.67
2023-02-25T02:49:37.136Z,36.07
2023-02-25T02:52:08.489Z,38.10
2023-02-25T02:54:38.571Z,35.20
2023-02-25T02:57:06.125Z,35.13
2023-02-25T02:59:35.680Z,37.17
2023-02-25T03:02:11.613Z,36.60
2023-02-25T03:04:39.132Z,36.93
2023-02-25T03:07:08.125Z,36.87
2023-02-25T03:09:54.430Z,34.63
2023-02-25T03:12:22.393Z,34.33
2023-02-25T03:14:50.443Z,34.30
2023-02-25T03:17:23.139Z,33.10
2023-02-25T03:19:53.950Z,34.37
2023-02-25T03:22:23.998Z,34.33
2023-02-25T03:25:00.232Z,33.50
2023-02-25T03:27:53.202Z,33.60
2023-02-25T03:30:33.105Z,35.80
2023-02-25T03:33:22.390Z,32.87
2023-02-25T03:35:50.021Z,33.13
2023-02-25T03:38:19.923Z,33.57
2023-02-25T03:40:48.076Z,34.30
2023-02-25T03:43:17.464Z,33.47
2023-02-25T03:45:44.771Z,32.47
2023-02-25T03:48:12.093Z,34.83
2023-02-25T03:50:45.379Z,34.00
2023-02-25T03:53:12.995Z,34.47
2023-02-25T03:55:40.753Z,33.33
2023-02-25T03:58:09.618Z,34.03
2023-02-25T04:00:37.187Z,31.33
2023-02-25T04:03:04.325Z,33.60
2023-02-25T04:05:32.209Z,34.13
2023-02-25T04:07:59.993Z,34.53
2023-02-25T04:10:28.276Z,35.97
2023-02-25T04:12:55.934Z,36.00
2023-02-25T04:15:23.382Z,35.30
2023-02-25T04:17:51.819Z,35.87
2023-02-25T04:20:19.928Z,37.13
2023-02-25T04:22:47.904Z,36.77
2023-02-25T04:25:15.765Z,36.60
2023-02-25T04:27:43.322Z,35.40
2023-02-25T04:30:13.091Z,36.97
2023-02-25T04:32:41.499Z,36.67
2023-02-25T04:35:13.764Z,37.67
2023-02-25T04:37:42.384Z,37.27
2023-02-25T04:40:15.982Z,35.93
2023-02-25T04:42:44.127Z,34.23
2023-02-25T04:45:13.801Z,36.53
2023-02-25T04:47:41.592Z,36.43
2023-02-25T04:50:12.056Z,37.90
2023-02-25T04:52:39.653Z,39.10
2023-02-25T04:55:09.971Z,37.50
2023-02-25T04:57:43.487Z,35.60
2023-02-25T05:00:20.813Z,37.33
2023-02-25T05:02:48.903Z,35.90
2023-02-25T05:05:16.088Z,37.43
2023-02-25T05:07:44.118Z,35.83
2023-02-25T05:10:13.348Z,35.33
2023-02-25T05:12:41.222Z,36.57
2023-02-25T05:15:12.302Z,35.80
2023-02-25T05:17:40.264Z,34.90
2023-02-25T05:20:12.224Z,34.50
2023-02-25T05:22:40.318Z,35.07
2023-02-25T05:25:10.242Z,32.00
2023-02-25T05:27:38.329Z,34.30
2023-02-25T05:30:09.223Z,33.03
2023-02-25T05:32:37.137Z,32.33
2023-02-25T05:35:08.861Z,31.30
2023-02-25T05:37:36.704Z,32.63
2023-02-25T05:40:05.358Z,30.07
2023-02-25T05:42:33.731Z,30.63
2023-02-25T05:45:01.411Z,31.00
2023-02-25T05:47:29.389Z,31.83
2023-02-25T05:49:56.950Z,29.90
2023-02-25T05:52:24.919Z,32.13
2023-02-25T05:54:52.949Z,30.90
2023-02-25T05:57:20.953Z,32.17
2023-02-25T05:59:48.900Z,30.30
2023-02-25T06:02:16.931Z,31.83
2023-02-25T06:04:44.987Z,30.37
2023-02-25T06:07:12.862Z,32.87
2023-02-25T06:09:40.926Z,30.67
2023-02-25T06:12:09.008Z,33.13
2023-02-25T06:14:37.016Z,33.80
2023-02-25T06:17:05.063Z,33.07
2023-02-25T06:19:33.189Z,32.50
2023-02-25T06:22:01.210Z,30.93
2023-02-25T06:24:28.826Z,31.83
2023-02-25T06:26:56.777Z,33.03
2023-02-25T06:29:24.516Z,31.73
2023-02-25T06:31:53.115Z,33.30
2023-02-25T06:34:21.287Z,33.70
2023-02-25T06:36:49.195Z,33.23
2023-02-25T06:39:17.496Z,34.93
2023-02-25T06:41:45.299Z,33.53
2023-02-25T06:44:14.862Z,33.70
2023-02-25T06:46:43.729Z,33.43
2023-02-25T06:49:11.498Z,32.63
2023-02-25T06:51:39.796Z,32.83
2023-02-25T06:54:07.365Z,31.73
2023-02-25T06:56:34.908Z,30.23
2023-02-25T06:59:02.436Z,29.13
2023-02-25T07:01:30.962Z,31.43
2023-02-25T07:03:58.533Z,28.93
2023-02-25T07:06:26.334Z,30.27
2023-02-25T07:08:54.168Z,30.50
2023-02-25T07:11:21.881Z,30.00
2023-02-25T07:13:50.179Z,30.37
2023-02-25T07:16:17.898Z,29.30
2023-02-25T07:18:45.177Z,30.23
2023-02-25T07:21:12.909Z,29.83
2023-02-25T07:23:40.766Z,27.63
2023-02-25T07:26:08.903Z,28.63
2023-02-25T07:28:37.166Z,27.87
2023-02-25T07:31:06.207Z,27.90
2023-02-25T07:33:33.868Z,27.93
2023-02-25T07:36:02.038Z,26.33
2023-02-25T07:38:30.027Z,28.20
2023-02-25T07:40:58.280Z,27.10
2023-02-25T07:43:26.318Z,27.50
2023-02-25T07:45:57.662Z,26.77
2023-02-25T07:48:25.297Z,27.30
2023-02-25T07:50:53.280Z,26.30
2023-02-25T07:53:22.600Z,25.07
2023-02-25T07:55:50.546Z,27.07
2023-02-25T07:58:18.559Z,24.70
2023-02-25T08:00:46.331Z,26.17
2023-02-25T08:03:13.457Z,25.20
2023-02-25T08:05:41.528Z,25.03
2023-02-25T08:08:09.211Z,24.90
2023-02-25T08:10:37.718Z,23.77
2023-02-25T08:13:05.955Z,24.70
2023-02-25T08:15:33.476Z,24.53
2023-02-25T08:18:01.493Z,23.80
2023-02-25T08:20:29.442Z,23.93
2023-02-25T08:22:57.241Z,24.97
2023-02-25T08:25:25.313Z,24.13
2023-02-25T08:27:53.263Z,24.70
2023-02-25T08:30:22.249Z,22.57
2023-02-25T08:32:50.341Z,22.50
2023-02-25T08:35:18.525Z,21.23
2023-02-25T08:37:45.974Z,22.70
2023-02-25T08:40:14.094Z,23.73
2023-02-25T08:42:41.628Z,21.57
2023-02-25T08:45:10.766Z,21.97
2023-02-25T08:47:38.342Z,20.57
2023-02-25T08:50:08.311Z,20.27
2023-02-25T08:52:35.882Z,20.33
2023-02-25T08:55:04.023Z,20.73
2023-02-25T08:57:30.778Z,20.43
2023-02-25T08:59:59.114Z,19.10
2023-02-25T09:02:26.979Z,19.90
2023-02-25T09:04:55.478Z,18.97
2023-02-25T09:07:23.685Z,20.67
2023-02-25T09:09:51.742Z,19.23
2023-02-25T09:12:19.564Z,19.23
2023-02-25T09:14:47.603Z,18.97
2023-02-25T09:17:15.536Z,18.93
2023-02-25T09:19:43.864Z,17.70
2023-02-25T09:22:11.821Z,18.17
2023-02-25T09:24:39.432Z,18.73
2023-02-25T09:27:08.160Z,17.50
2023-02-25T09:29:59.090Z,17.63
2023-02-25T09:32:27.512Z,17.83
2023-02-25T09:34:55.075Z,17.77
2023-02-25T09:37:23.256Z,18.57
2023-02-25T09:39:50.890Z,18.53
2023-02-25T09:42:22.635Z,17.63
2023-02-25T09:44:58.086Z,20.07
2023-02-25T09:47:56.795Z,20.27
2023-02-25T09:50:35.423Z,20.33
2023-02-25T09:53:16.375Z,20.77
2023-02-25T09:55:45.984Z,20.87
2023-02-25T09:58:31.352Z,22.13
2023-02-25T10:01:04.872Z,21.03
2023-02-25T10:04:00.301Z,21.53
2023-02-25T10:06:33.198Z,20.73
2023-02-25T10:09:06.317Z,22.20
2023-02-25T10:11:53.505Z,23.00
2023-02-25T10:14:45.115Z,23.02
2023-02-25T10:18:01.089Z,23.03
2023-02-25T10:20:44.378Z,19.30
2023-02-25T10:23:25.880Z,21.17
2023-02-25T10:26:34.576Z,18.57
2023-02-25T10:29:06.666Z,19.73
2023-02-25T10:31:34.708Z,19.50
2023-02-25T10:34:15.471Z,19.17
2023-02-25T10:36:44.744Z,19.70
2023-02-25T10:39:15.809Z,20.97
2023-02-25T10:41:44.065Z,19.60
2023-02-25T10:44:11.937Z,19.70
2023-02-25T10:47:07.010Z,18.90
2023-02-25T10:49:38.672Z,19.37
2023-02-25T10:52:06.241Z,20.33
2023-02-25T10:54:49.543Z,19.03
2023-02-25T10:57:25.922Z,18.80
2023-02-25T11:00:05.080Z,19.08
2023-02-25T11:02:33.497Z,18.77
2023-02-25T11:05:01.411Z,18.03
2023-02-25T11:07:45.092Z,17.50
2023-02-25T11:10:38.806Z,17.57
2023-02-25T11:13:06.600Z,16.40
2023-02-25T11:15:44.733Z,16.40
2023-02-25T11:18:12.566Z,16.63
2023-02-25T11:20:39.736Z,16.73
2023-02-25T11:23:07.683Z,16.17
2023-02-25T11:25:39.914Z,15.83
2023-02-25T11:28:24.345Z,15.53
2023-02-25T11:30:52.333Z,15.73
2023-02-25T11:33:41.024Z,13.60
2023-02-25T11:36:34.649Z,14.37
2023-02-25T11:39:17.726Z,14.43
2023-02-25T11:42:18.921Z,12.80
2023-02-25T11:44:47.401Z,12.20
2023-02-25T11:47:23.751Z,13.87
2023-02-25T11:50:05.100Z,11.35
2023-02-25T11:52:44.439Z,11.63
2023-02-25T11:55:17.541Z,11.57
2023-02-25T11:57:44.512Z,10.67
2023-02-25T12:00:11.562Z,9.53
2023-02-25T12:02:44.602Z,10.47
2023-02-25T12:05:11.555Z,9.47
2023-02-25T12:08:13.362Z,9.07
2023-02-25T12:10:59.355Z,9.93
2023-02-25T12:13:51.349Z,8.70
2023-02-25T12:16:27.513Z,8.13
2023-02-25T12:19:42.146Z,7.75
2023-02-25T12:22:46.918Z,7.03
2023-02-25T12:25:19.946Z,7.53
2023-02-25T12:28:24.841Z,8.23
2023-02-25T12:31:12.549Z,7.20
2023-02-25T12:34:24.118Z,7.53
2023-02-25T12:37:02.929Z,7.03
2023-02-25T12:39:42.830Z,6.90
2023-02-25T12:42:21.450Z,6.60
2023-02-25T12:45:23.625Z,7.53
2023-02-25T12:48:20.727Z,7.50
2023-02-25T12:51:25.949Z,7.18
2023-02-25T12:54:07.155Z,7.67
2023-02-25T12:56:44.682Z,6.70
2023-02-25T12:59:32.617Z,7.70
2023-02-25T13:02:35.025Z,7.33
2023-02-25T13:05:08.087Z,7.00
2023-02-25T13:08:02.682Z,7.53
2023-02-25T13:10:33.132Z,7.57
2023-02-25T13:13:19.185Z,7.70
2023-02-25T13:16:10.240Z,7.70
2023-02-25T13:18:56.598Z,8.17
2023-02-25T13:21:52.984Z,7.63
2023-02-25T13:24:22.165Z,7.90
2023-02-25T13:27:07.525Z,8.17
2023-02-25T13:29:40.315Z,7.97
2023-02-25T13:32:07.305Z,8.77
2023-02-25T13:34:52.686Z,8.60
2023-02-25T13:37:38.900Z,9.20
2023-02-25T13:40:37.284Z,7.87
2023-02-25T13:43:31.244Z,8.40
2023-02-25T13:46:01.284Z,9.13
2023-02-25T13:49:02.390Z,8.87
2023-02-25T13:51:58.347Z,8.30
2023-02-25T13:54:48.653Z,8.37
2023-02-25T13:57:31.155Z,8.47
2023-02-25T13:59:58.132Z,8.70
2023-02-25T14:02:43.034Z,9.60
2023-02-25T14:05:38.012Z,8.37
2023-02-25T14:08:37.645Z,8.93
2023-02-25T14:11:17.089Z,8.80
2023-02-25T14:14:12.825Z,8.77
2023-02-25T14:17:00.602Z,9.17
2023-02-25T14:19:35.849Z,9.07
2023-02-25T14:22:37.384Z,9.10
2023-02-25T14:25:32.249Z,9.67
2023-02-25T14:28:01.654Z,9.13
2023-02-25T14:30:52.254Z,9.97
2023-02-25T14:33:56.036Z,10.00
2023-02-25T14:36:58.847Z,10.30
2023-02-25T14:39:27.262Z,9.13
2023-02-25T14:42:28.496Z,9.60
2023-02-25T14:45:19.388Z,9.67
2023-02-25T14:47:56.749Z,9.73
2023-02-25T14:51:01.151Z,9.73
2023-02-25T14:53:31.129Z,10.20
2023-02-25T14:56:36.675Z,10.27
2023-02-25T14:59:06.703Z,9.80
2023-02-25T15:01:54.412Z,10.17
2023-02-25T15:04:33.317Z,10.10
2023-02-25T15:07:57.231Z,10.13
2023-02-25T15:10:45.120Z,10.37
2023-02-25T15:13:16.630Z,10.00
2023-02-25T15:16:32.098Z,9.93
2023-02-25T15:19:23.534Z,10.47
2023-02-25T15:21:52.880Z,10.27
2023-02-25T15:24:28.536Z,10.67
2023-02-25T15:26:56.758Z,9.53
2023-02-25T15:29:29.325Z,9.93
2023-02-25T15:32:30.742Z,10.00
2023-02-25T15:35:05.424Z,10.57
2023-02-25T15:37:33.571Z,11.13
2023-02-25T15:40:02.752Z,9.70
2023-02-25T15:42:48.537Z,10.40
2023-02-25T15:45:27.694Z,10.80
2023-02-25T15:48:12.996Z,11.23
2023-02-25T15:50:42.752Z,10.90
2023-02-25T15:53:09.710Z,10.97
2023-02-25T15:56:04.559Z,11.00
2023-02-25T15:58:31.525Z,10.93
2023-02-25T16:01:07.056Z,11.27
2023-02-25T16:03:37.927Z,11.60
2023-02-25T16:06:23.197Z,10.90
2023-02-25T16:09:08.882Z,11.27
2023-02-25T16:11:46.915Z,11.90
2023-02-25T16:14:23.306Z,11.83
2023-02-25T16:19:20.534Z,12.47
2023-02-25T16:21:49.506Z,13.77
2023-02-25T16:24:17.036Z,25.87
2023-02-25T16:27:00.810Z,22.27
2023-02-25T16:29:36.449Z,18.97
2023-02-25T16:32:22.091Z,15.57
2023-02-25T16:35:10.063Z,13.70
2023-02-25T16:37:41.870Z,19.63
2023-02-25T16:40:17.497Z,17.63
2023-02-25T16:42:45.775Z,15.10
2023-02-25T16:45:28.993Z,18.10
2023-02-25T16:48:27.954Z,15.93
2023-02-25T16:51:00.254Z,16.37
2023-02-25T16:53:31.276Z,15.83
2023-02-25T16:55:59.986Z,16.00
2023-02-25T16:58:32.753Z,19.63
2023-02-25T17:01:02.511Z,19.13
2023-02-25T17:03:33.362Z,18.70
2023-02-25T17:06:01.621Z,18.23
2023-02-25T17:08:29.679Z,21.67
2023-02-25T17:10:58.853Z,21.40
2023-02-25T17:13:34.824Z,21.07
2023-02-25T17:16:04.017Z,24.95
2023-02-25T17:18:39.827Z,27.43
2023-02-25T17:21:18.888Z,27.57
2023-02-25T17:23:46.118Z,27.57
2023-02-25T17:26:17.046Z,29.43
2023-02-25T17:28:45.931Z,27.80
2023-02-25T17:31:15.608Z,27.80
2023-02-25T17:33:53.951Z,28.03
2023-02-25T17:36:47.737Z,28.10
2023-02-25T17:39:26.801Z,28.30
2023-02-25T17:41:54.312Z,29.53
2023-02-25T17:44:39.211Z,29.07
2023-02-25T17:47:07.164Z,28.60
2023-02-25T17:49:35.164Z,30.63
2023-02-25T17:52:02.667Z,29.27
2023-02-25T17:54:30.648Z,29.13
2023-02-25T17:56:59.659Z,30.03
2023-02-25T17:59:36.575Z,28.13
2023-02-25T18:04:41.526Z,28.98
2023-02-25T18:07:21.435Z,30.23
2023-02-25T18:09:48.415Z,28.77
2023-02-25T18:12:31.146Z,29.07
2023-02-25T18:15:01.286Z,29.80
2023-02-25T18:17:31.984Z,29.70
2023-02-25T18:20:04.712Z,30.30
2023-02-25T18:22:35.825Z,29.40
2023-02-25T18:25:06.436Z,30.73
2023-02-25T18:27:37.599Z,28.93
2023-02-25T18:30:22.313Z,30.10
2023-02-25T18:32:50.282Z,30.50
2023-02-25T18:35:18.584Z,31.30
2023-02-25T18:37:46.405Z,30.10
2023-02-25T18:40:51.555Z,30.27
2023-02-25T18:43:24.278Z,32.33
2023-02-25T18:45:52.070Z,32.47
2023-02-25T18:48:20.018Z,30.63
2023-02-25T18:50:47.587Z,31.47
2023-02-25T18:53:16.041Z,31.90
2023-02-25T18:55:43.915Z,31.30
2023-02-25T18:58:15.149Z,31.03
2023-02-25T19:00:42.765Z,31.23
2023-02-25T19:03:12.509Z,30.10
2023-02-25T19:05:40.601Z,29.97
2023-02-25T19:08:15.482Z,29.63
2023-02-25T19:10:43.717Z,28.70
2023-02-25T19:13:28.820Z,31.33
2023-02-25T19:15:56.889Z,29.73
2023-02-25T19:18:24.492Z,31.37
2023-02-25T19:20:52.478Z,32.17
2023-02-25T19:23:20.655Z,31.27
2023-02-25T19:25:54.682Z,29.47
2023-02-25T19:28:22.585Z,28.90
2023-02-25T19:30:50.517Z,29.60
2023-02-25T19:33:18.225Z,28.67
2023-02-25T19:35:45.977Z,29.30
2023-02-25T19:38:17.297Z,30.03
2023-02-25T19:40:45.926Z,29.47
2023-02-25T19:43:13.644Z,27.53
2023-02-25T19:45:40.802Z,27.70
2023-02-25T19:48:08.648Z,28.03
2023-02-25T19:50:37.086Z,28.90
2023-02-25T19:53:05.682Z,28.50
2023-02-25T19:55:33.381Z,29.43
2023-02-25T19:58:01.474Z,28.43
2023-02-25T20:00:29.364Z,29.33
2023-02-25T20:02:56.851Z,30.27
2023-02-25T20:05:24.652Z,31.47
2023-02-25T20:07:52.635Z,29.63
2023-02-25T20:10:22.071Z,28.40
2023-02-25T20:12:49.816Z,28.93
2023-02-25T20:15:17.323Z,28.57
2023-02-25T20:17:45.484Z,29.50
2023-02-25T20:20:13.266Z,28.87
2023-02-25T20:22:41.257Z,27.47
2023-02-25T20:25:08.807Z,30.37
2023-02-25T20:27:37.193Z,28.47
2023-02-25T20:30:05.417Z,27.87
2023-02-25T20:32:33.477Z,26.43
2023-02-25T20:35:02.228Z,28.77
2023-02-25T20:37:31.373Z,28.10
2023-02-25T20:39:59.319Z,28.97
2023-02-25T20:42:30.614Z,27.73
2023-02-25T20:44:58.515Z,28.20
2023-02-25T20:47:30.608Z,27.77
2023-02-25T20:49:58.316Z,27.83
2023-02-25T20:52:26.966Z,27.97
2023-02-25T20:54:54.230Z,27.97
2023-02-25T20:57:23.252Z,31.00
2023-02-25T20:59:50.765Z,29.73
2023-02-25T21:02:18.778Z,28.40
2023-02-25T21:04:49.472Z,27.23
2023-02-25T21:07:17.497Z,27.73
2023-02-25T21:09:45.492Z,28.47
2023-02-25T21:12:13.520Z,28.53
2023-02-25T21:14:40.958Z,27.00
2023-02-25T21:17:13.762Z,26.43
2023-02-25T21:19:41.015Z,28.53
2023-02-25T21:22:09.643Z,27.77
2023-02-25T21:24:37.783Z,27.80
2023-02-25T21:27:05.779Z,26.87
2023-02-25T21:29:33.364Z,26.83
2023-02-25T21:32:03.582Z,28.30
2023-02-25T21:34:32.010Z,27.80
2023-02-25T21:36:59.662Z,27.90
2023-02-25T21:39:27.988Z,28.80
2023-02-25T21:41:55.800Z,28.07
2023-02-25T21:44:22.814Z,29.17
2023-02-25T21:46:50.300Z,29.30
2023-02-25T21:49:18.329Z,29.27
2023-02-25T21:51:46.110Z,30.20
2023-02-25T21:54:13.694Z,27.87
2023-02-25T21:56:41.015Z,29.27
2023-02-25T21:59:12.153Z,28.13
2023-02-25T22:01:40.617Z,28.50
2023-02-25T22:04:08.668Z,28.33
2023-02-25T22:06:36.802Z,29.40
2023-02-25T22:09:04.554Z,28.83
2023-02-25T22:11:36.681Z,28.53
2023-02-25T22:14:05.525Z,29.27
2023-02-25T22:16:36.985Z,29.00
2023-02-25T22:19:04.751Z,29.70
2023-02-25T22:21:33.422Z,30.07
2023-02-25T22:24:01.486Z,29.63
2023-02-25T22:26:30.448Z,29.63
2023-02-25T22:28:59.163Z,29.87
2023-02-25T22:31:26.702Z,29.10
2023-02-25T22:33:53.897Z,29.73
2023-02-25T22:36:21.873Z,27.90
2023-02-25T22:38:49.306Z,28.47
2023-02-25T22:41:22.365Z,31.37
2023-02-25T22:43:49.987Z,29.10
2023-02-25T22:46:18.895Z,28.77
2023-02-25T22:48:48.262Z,31.03
2023-02-25T22:51:25.081Z,29.77
2023-02-25T22:53:51.907Z,31.55
2023-02-25T22:56:19.448Z,28.80
2023-02-25T22:58:47.504Z,30.80
2023-02-25T23:01:15.663Z,30.37
2023-02-25T23:03:46.609Z,29.57
2023-02-25T23:06:14.614Z,29.67
2023-02-25T23:08:41.571Z,30.30
2023-02-25T23:11:12.180Z,31.43
2023-02-25T23:13:46.257Z,30.03
2023-02-25T23:16:17.250Z,28.30
2023-02-25T23:18:45.346Z,28.20
2023-02-25T23:21:16.515Z,30.67
2023-02-25T23:23:43.580Z,28.90
2023-02-25T23:26:13.538Z,30.93
2023-02-25T23:28:41.133Z,30.00
2023-02-25T23:31:10.028Z,31.33
2023-02-25T23:33:38.214Z,31.30
2023-02-25T23:36:07.040Z,31.77
2023-02-25T23:38:35.047Z,31.03
2023-02-25T23:41:02.976Z,29.90
2023-02-25T23:43:31.432Z,31.23
2023-02-25T23:46:04.216Z,30.77
2023-02-25T23:48:31.883Z,30.87
2023-02-25T23:51:06.232Z,32.23
2023-02-25T23:53:33.499Z,29.47
2023-02-25T23:56:24.386Z,31.40
2023-02-25T23:58:53.921Z,30.47
